Main page
METAR-TAF:

METAR-TAF

Airports :

Orange, France

Orange-Caritat Air Base

latitude: 44-08N, longitude: 004-50E, elevation: 60 m

Current weather observation

The report was made 24 minutes ago, at 07:00 UTC
Calm wind
Temperature 0°C
Humidity 93%
Pressure 1019 hPa
Visibility 10 km or more
no clouds below 1500 m and no cumulonimbus

METAR: LFMO 220700Z AUTO 00000KT CAVOK M00/M01 Q1019 TEMPO 3000 BR

Time: 08:24 (07:24 UTC)

Forecast

The report was made 5 hours and 24 minutes ago, at 02:00 UTC
Forecast valid from 22 at 03 UTC to 23 at 03 UTC
Wind 2 kt from variable directions
Visibility 10 km or more
no clouds below 1500 m and no cumulonimbus
Probability 30% :
Temporary
from 22 at 06 UTC to 22 at 08 UTC
Visibility: 3000 m
mist
From 22 at 1600 UTC
Wind 10 kt from the South
Visibility 10 km or more
Broken clouds at a height of 2500 ft

TAF: LFMO 220200Z 2203/2303 VRB02KT CAVOK PROB30 TEMPO 2206/2208 3000 BR FM221600 18010KT 9999 BKN025

Weather observations and forecasts of more than 4000 airports (METAR and TAF reports).

The available stations are represented by yellow and red dots on the map.

Hover mouse over dot to see the name of the station.

Then click to see weather observations and forecasts.

To change the map : click on the green buttons with a black cross to zoom in, on the green button with a dash to zoom out, or on the green arrows for adjacent maps.


METAR-TAF: